createdAt,value
2023-05-24T00:01:50.822Z,11.50
2023-05-24T00:04:57.783Z,11.50
2023-05-24T00:08:00.265Z,11.50
2023-05-24T00:11:03.622Z,11.50
2023-05-24T00:14:06.107Z,11.50
2023-05-24T00:17:09.568Z,11.50
2023-05-24T00:20:14.848Z,11.40
2023-05-24T00:23:16.796Z,11.20
2023-05-24T00:26:18.690Z,11.30
2023-05-24T00:29:21.400Z,11.30
2023-05-24T00:32:25.407Z,11.30
2023-05-24T00:35:28.830Z,11.20
2023-05-24T00:38:30.709Z,11.10
2023-05-24T00:41:32.532Z,11.00
2023-05-24T00:44:34.301Z,10.80
2023-05-24T00:47:37.247Z,10.80
2023-05-24T00:50:40.514Z,10.90
2023-05-24T00:53:44.320Z,10.90
2023-05-24T00:56:49.706Z,11.00
2023-05-24T00:59:57.268Z,10.90
2023-05-24T01:03:01.288Z,10.80
2023-05-24T01:06:07.366Z,10.90
2023-05-24T01:09:14.640Z,10.90
2023-05-24T01:12:43.153Z,10.80
2023-05-24T01:15:53.968Z,10.80
2023-05-24T01:18:59.884Z,10.80
2023-05-24T01:22:14.186Z,10.80
2023-05-24T01:25:40.491Z,10.70
2023-05-24T01:28:44.362Z,10.70
2023-05-24T01:31:46.376Z,10.60
2023-05-24T01:34:49.654Z,10.50
2023-05-24T01:37:53.117Z,10.50
2023-05-24T01:40:59.322Z,10.40
2023-05-24T01:44:13.412Z,10.40
2023-05-24T01:47:21.128Z,10.50
2023-05-24T01:50:32.111Z,10.40
2023-05-24T01:53:35.991Z,10.30
2023-05-24T01:56:39.317Z,10.40
2023-05-24T01:59:43.400Z,10.20
2023-05-24T02:02:45.920Z,10.10
2023-05-24T02:05:48.554Z,10.00
2023-05-24T02:08:50.485Z,10.00
2023-05-24T02:11:52.276Z,10.10
2023-05-24T02:14:55.419Z,10.00
2023-05-24T02:17:59.067Z,10.00
2023-05-24T02:21:07.073Z,10.00
2023-05-24T02:24:11.526Z,9.80
2023-05-24T02:27:16.786Z,9.70
2023-05-24T02:30:19.111Z,9.70
2023-05-24T02:33:22.256Z,9.80
2023-05-24T02:36:24.614Z,9.80
2023-05-24T02:39:27.412Z,10.00
2023-05-24T02:42:29.178Z,9.90
2023-05-24T02:45:32.653Z,9.90
2023-05-24T02:48:34.616Z,9.80
2023-05-24T02:51:37.114Z,9.90
2023-05-24T02:54:38.956Z,9.90
2023-05-24T02:57:41.708Z,9.60
2023-05-24T03:00:44.122Z,9.60
2023-05-24T03:03:46.937Z,9.50
2023-05-24T03:06:48.968Z,9.60
2023-05-24T03:09:50.914Z,9.70
2023-05-24T03:12:52.967Z,9.40
2023-05-24T03:15:55.672Z,9.50
2023-05-24T03:18:58.884Z,9.30
2023-05-24T03:22:00.877Z,9.30
2023-05-24T03:25:02.687Z,9.40
2023-05-24T03:28:11.734Z,9.50
2023-05-24T03:31:14.399Z,9.40
2023-05-24T03:34:17.960Z,9.20
2023-05-24T03:37:19.828Z,9.30
2023-05-24T03:40:21.897Z,9.30
2023-05-24T03:43:23.769Z,9.00
2023-05-24T03:46:30.635Z,9.10
2023-05-24T03:49:32.464Z,9.00
2023-05-24T03:52:34.735Z,9.20
2023-05-24T03:55:36.690Z,9.10
2023-05-24T03:58:43.416Z,9.10
2023-05-24T04:01:45.279Z,9.20
2023-05-24T04:04:53.665Z,9.30
2023-05-24T04:07:56.201Z,9.30
2023-05-24T04:10:58.651Z,9.30
2023-05-24T04:14:00.747Z,9.30
2023-05-24T04:17:07.262Z,9.20
2023-05-24T04:20:10.036Z,9.20
2023-05-24T04:23:12.901Z,9.20
2023-05-24T04:26:15.759Z,9.30
2023-05-24T04:29:19.010Z,9.20
2023-05-24T04:32:20.802Z,9.20
2023-05-24T04:35:27.130Z,9.10
2023-05-24T04:38:32.541Z,9.10
2023-05-24T04:41:36.031Z,9.10
2023-05-24T04:44:44.018Z,9.20
2023-05-24T04:47:45.926Z,9.30
2023-05-24T04:50:48.005Z,9.50
2023-05-24T04:53:50.738Z,9.40
2023-05-24T04:56:52.628Z,9.50
2023-05-24T04:59:55.319Z,9.60
2023-05-24T05:02:57.389Z,9.60
2023-05-24T05:05:59.849Z,9.60
2023-05-24T05:09:01.908Z,9.60
2023-05-24T05:12:03.921Z,9.70
2023-05-24T05:15:06.530Z,9.70
2023-05-24T05:18:09.282Z,9.80
2023-05-24T05:21:11.790Z,9.90
2023-05-24T05:24:16.394Z,10.00
2023-05-24T05:27:19.000Z,10.00
2023-05-24T05:30:20.989Z,10.00
2023-05-24T05:33:25.295Z,10.00
2023-05-24T05:36:27.477Z,9.90
2023-05-24T05:39:31.760Z,9.90
2023-05-24T05:42:34.533Z,9.90
2023-05-24T05:45:36.341Z,10.20
2023-05-24T05:48:45.036Z,10.20
2023-05-24T05:51:48.324Z,10.30
2023-05-24T05:54:50.868Z,10.30
2023-05-24T05:57:52.659Z,10.40
2023-05-24T06:00:54.836Z,10.50
2023-05-24T06:03:56.714Z,10.50
2023-05-24T06:06:59.537Z,10.60
2023-05-24T06:10:01.343Z,10.70
2023-05-24T06:13:09.430Z,10.70
2023-05-24T06:16:11.538Z,10.70
2023-05-24T06:19:18.507Z,10.80
2023-05-24T06:22:21.666Z,10.80
2023-05-24T06:25:24.607Z,10.80
2023-05-24T06:28:26.550Z,10.90
2023-05-24T06:31:28.646Z,11.00
2023-05-24T06:34:30.749Z,11.10
2023-05-24T06:37:35.187Z,11.20
2023-05-24T06:40:37.002Z,11.40
2023-05-24T06:43:38.828Z,11.50
2023-05-24T06:46:41.162Z,11.70
2023-05-24T06:49:43.101Z,11.70
2023-05-24T06:52:45.078Z,11.70
2023-05-24T06:55:47.775Z,11.70
2023-05-24T06:58:49.556Z,11.70
2023-05-24T07:01:57.872Z,11.70
2023-05-24T07:05:00.687Z,11.90
2023-05-24T07:08:02.895Z,11.90
2023-05-24T07:11:04.735Z,12.10
2023-05-24T07:14:09.769Z,12.20
2023-05-24T07:17:11.667Z,12.30
2023-05-24T07:20:13.926Z,12.40
2023-05-24T07:23:15.815Z,12.40
2023-05-24T07:26:18.096Z,12.50
2023-05-24T07:29:21.928Z,12.50
2023-05-24T07:32:23.992Z,12.50
2023-05-24T07:35:26.175Z,12.60
2023-05-24T07:38:29.299Z,12.80
2023-05-24T07:41:31.503Z,13.00
2023-05-24T07:44:34.456Z,13.10
2023-05-24T07:47:37.329Z,13.20
2023-05-24T07:50:45.622Z,13.30
2023-05-24T07:53:47.361Z,13.20
2023-05-24T07:56:51.819Z,13.30
2023-05-24T07:59:53.921Z,13.40
2023-05-24T08:02:56.613Z,13.40
2023-05-24T08:05:58.677Z,13.40
2023-05-24T08:09:00.835Z,13.50
2023-05-24T08:12:03.888Z,13.60
2023-05-24T08:15:06.855Z,13.70
2023-05-24T08:18:09.569Z,13.70
2023-05-24T08:21:11.668Z,13.60
2023-05-24T08:24:13.571Z,13.50
2023-05-24T08:27:20.010Z,13.50
2023-05-24T08:30:21.843Z,13.40
2023-05-24T08:33:24.500Z,13.50
2023-05-24T08:36:26.816Z,13.60
2023-05-24T08:39:30.361Z,13.90
2023-05-24T08:42:32.648Z,14.10
2023-05-24T08:45:37.708Z,14.30
2023-05-24T08:48:46.141Z,14.50
2023-05-24T08:51:50.194Z,14.60
2023-05-24T08:54:53.273Z,14.80
2023-05-24T08:57:57.244Z,14.80
2023-05-24T09:01:00.087Z,14.70
2023-05-24T09:04:05.352Z,14.70
2023-05-24T09:07:08.750Z,14.90
2023-05-24T09:10:13.236Z,14.90
2023-05-24T09:13:17.198Z,14.90
2023-05-24T09:16:20.229Z,15.00
2023-05-24T09:19:22.234Z,14.90
2023-05-24T09:22:26.915Z,14.90
2023-05-24T09:25:32.365Z,14.90
2023-05-24T09:28:35.811Z,14.80
2023-05-24T09:31:39.603Z,14.90
2023-05-24T09:34:44.619Z,14.90
2023-05-24T09:37:47.244Z,14.90
2023-05-24T09:41:08.602Z,14.80
2023-05-24T09:44:14.941Z,14.80
2023-05-24T09:47:25.371Z,14.80
2023-05-24T09:50:27.563Z,14.90
2023-05-24T09:53:30.845Z,15.00
2023-05-24T09:56:36.099Z,14.90
2023-05-24T09:59:41.682Z,15.10
2023-05-24T10:02:52.800Z,15.00
2023-05-24T10:05:56.760Z,15.00
2023-05-24T10:08:59.187Z,15.00
2023-05-24T10:12:07.026Z,15.10
2023-05-24T10:15:11.010Z,15.10
2023-05-24T10:18:14.453Z,15.10
2023-05-24T10:21:20.224Z,15.10
2023-05-24T10:24:27.958Z,15.10
2023-05-24T10:27:33.316Z,15.30
2023-05-24T10:30:48.094Z,15.30
2023-05-24T10:34:01.403Z,15.20
2023-05-24T10:37:14.346Z,15.30
2023-05-24T10:40:22.274Z,15.40
2023-05-24T10:43:25.862Z,15.40
2023-05-24T10:46:28.415Z,15.30
2023-05-24T10:49:31.363Z,15.30
2023-05-24T10:52:37.080Z,15.40
2023-05-24T10:55:59.811Z,15.50
2023-05-24T10:59:06.242Z,15.50
2023-05-24T11:02:16.274Z,15.50
2023-05-24T11:05:18.685Z,15.60
2023-05-24T11:08:33.576Z,15.70
2023-05-24T11:11:38.288Z,15.70
2023-05-24T11:14:40.736Z,15.80
2023-05-24T11:18:14.067Z,15.90
2023-05-24T11:21:16.143Z,16.00
2023-05-24T11:24:19.158Z,16.10
2023-05-24T11:27:21.736Z,16.10
2023-05-24T11:30:24.247Z,16.20
2023-05-24T11:33:33.355Z,16.10
2023-05-24T11:36:36.574Z,16.10
2023-05-24T11:39:38.543Z,16.00
2023-05-24T11:42:41.147Z,15.90
2023-05-24T11:45:44.762Z,15.90
2023-05-24T11:48:57.559Z,16.00
2023-05-24T11:52:04.537Z,16.00
2023-05-24T11:55:07.992Z,16.00
2023-05-24T11:58:21.023Z,16.00
2023-05-24T12:01:27.548Z,16.20
2023-05-24T12:04:32.727Z,16.20
2023-05-24T12:07:34.748Z,16.20
2023-05-24T12:10:37.855Z,16.30
2023-05-24T12:13:40.478Z,16.30
2023-05-24T12:16:43.526Z,16.20
2023-05-24T12:19:48.770Z,16.30
2023-05-24T12:23:00.584Z,16.30
2023-05-24T12:26:03.439Z,16.30
2023-05-24T12:29:05.374Z,16.30
2023-05-24T12:32:13.616Z,16.20
2023-05-24T12:35:19.910Z,16.30
2023-05-24T12:38:25.608Z,16.30
2023-05-24T12:41:30.764Z,16.30
2023-05-24T12:44:37.191Z,16.30
2023-05-24T12:47:39.201Z,16.30
2023-05-24T12:50:41.265Z,16.30
2023-05-24T12:53:43.489Z,16.30
2023-05-24T12:56:45.633Z,16.20
2023-05-24T12:59:52.955Z,16.10
2023-05-24T13:02:58.387Z,16.10
2023-05-24T13:06:00.555Z,16.10
2023-05-24T13:09:02.539Z,16.00
2023-05-24T13:12:06.205Z,16.00
2023-05-24T13:15:09.040Z,15.90
2023-05-24T13:18:10.888Z,15.90
2023-05-24T13:21:12.822Z,16.00
2023-05-24T13:24:18.358Z,16.00
2023-05-24T13:27:20.429Z,16.00
2023-05-24T13:30:27.666Z,16.00
2023-05-24T13:33:34.141Z,16.10
2023-05-24T13:36:41.141Z,16.10
2023-05-24T13:39:43.826Z,16.10
2023-05-24T13:42:45.763Z,16.10
2023-05-24T13:45:47.836Z,16.20
2023-05-24T13:48:55.108Z,16.10
2023-05-24T13:51:58.557Z,16.10
2023-05-24T13:55:03.143Z,16.20
2023-05-24T13:58:05.166Z,16.20
2023-05-24T14:01:08.663Z,16.20
2023-05-24T14:04:10.498Z,16.20
2023-05-24T14:07:15.629Z,16.10
2023-05-24T14:10:19.292Z,16.20
2023-05-24T14:14:20.361Z,16.20
2023-05-24T14:16:52.038Z,16.20
2023-05-24T14:19:55.931Z,16.20
2023-05-24T14:22:58.584Z,16.20
2023-05-24T14:26:05.282Z,16.20
2023-05-24T14:29:07.397Z,16.20
2023-05-24T14:32:16.085Z,16.20
2023-05-24T14:35:20.301Z,16.20
2023-05-24T14:38:24.066Z,16.30
2023-05-24T14:41:26.361Z,16.40
2023-05-24T14:44:28.565Z,16.40
2023-05-24T14:47:30.964Z,16.40
2023-05-24T14:50:33.038Z,16.60
2023-05-24T14:53:34.844Z,16.60
2023-05-24T14:56:36.922Z,16.60
2023-05-24T14:59:38.995Z,16.40
2023-05-24T15:02:41.016Z,16.40
2023-05-24T15:08:56.305Z,16.30
2023-05-24T15:11:58.688Z,16.30
2023-05-24T15:15:00.696Z,16.30
2023-05-24T15:18:02.715Z,16.20
2023-05-24T15:21:04.624Z,16.20
2023-05-24T15:24:06.751Z,16.10
2023-05-24T15:27:10.221Z,16.20
2023-05-24T15:30:12.147Z,16.10
2023-05-24T15:33:14.715Z,16.10
2023-05-24T15:36:17.305Z,16.10
2023-05-24T15:39:21.327Z,16.00
2023-05-24T15:42:24.838Z,15.90
2023-05-24T15:45:26.871Z,15.90
2023-05-24T15:48:28.753Z,16.00
2023-05-24T15:54:36.448Z,15.90
2023-05-24T15:57:38.700Z,15.90
2023-05-24T16:00:41.522Z,15.90
2023-05-24T16:03:43.818Z,15.90
2023-05-24T16:06:47.217Z,16.00
2023-05-24T16:09:50.962Z,16.00
2023-05-24T16:12:53.703Z,16.00
2023-05-24T16:15:55.606Z,16.00
2023-05-24T16:18:59.162Z,16.10
2023-05-24T16:22:01.026Z,16.20
2023-05-24T16:25:03.099Z,16.20
2023-05-24T16:28:04.950Z,16.20
2023-05-24T16:31:06.840Z,16.20
2023-05-24T16:34:08.907Z,16.30
2023-05-24T16:37:11.046Z,16.40
2023-05-24T16:40:13.254Z,16.40
2023-05-24T16:43:16.338Z,16.40
2023-05-24T16:46:19.161Z,16.60
2023-05-24T16:49:21.104Z,16.60
2023-05-24T16:52:23.094Z,16.60
2023-05-24T16:55:25.069Z,16.50
2023-05-24T16:58:28.175Z,16.50
2023-05-24T17:01:30.184Z,16.50
2023-05-24T17:04:38.246Z,16.50
2023-05-24T17:07:40.794Z,16.50
2023-05-24T17:10:44.054Z,16.50
2023-05-24T17:13:46.708Z,16.40
2023-05-24T17:16:48.612Z,16.40
2023-05-24T17:19:50.736Z,16.40
2023-05-24T17:22:52.761Z,16.40
2023-05-24T17:25:58.176Z,16.40
2023-05-24T17:29:01.565Z,16.50
2023-05-24T17:32:03.620Z,16.50
2023-05-24T17:35:09.137Z,16.50
2023-05-24T17:38:11.183Z,16.50
2023-05-24T17:41:13.164Z,16.50
2023-05-24T17:44:15.054Z,16.50
2023-05-24T17:47:17.061Z,16.50
2023-05-24T17:50:18.883Z,16.50
2023-05-24T17:53:30.865Z,16.50
2023-05-24T17:56:33.923Z,16.40
2023-05-24T17:59:36.006Z,16.40
2023-05-24T18:02:37.874Z,16.30
2023-05-24T18:05:40.359Z,16.30
2023-05-24T18:08:43.849Z,16.20
2023-05-24T18:11:45.934Z,16.20
2023-05-24T18:14:48.644Z,16.20
2023-05-24T18:17:50.673Z,16.10
2023-05-24T18:20:52.941Z,16.10
2023-05-24T18:23:54.966Z,16.10
2023-05-24T18:26:56.938Z,16.10
2023-05-24T18:30:01.055Z,16.00
2023-05-24T18:33:07.462Z,15.90
2023-05-24T18:36:11.477Z,15.90
2023-05-24T18:39:13.471Z,15.70
2023-05-24T18:42:20.616Z,15.70
2023-05-24T18:45:22.913Z,15.70
2023-05-24T18:48:24.863Z,15.80
2023-05-24T18:51:27.031Z,15.80
2023-05-24T18:54:31.450Z,15.80
2023-05-24T18:57:33.740Z,15.70
2023-05-24T19:00:35.605Z,15.70
2023-05-24T19:03:39.247Z,15.60
2023-05-24T19:06:41.944Z,15.50
2023-05-24T19:09:45.884Z,15.50
2023-05-24T19:12:50.144Z,15.40
2023-05-24T19:15:53.666Z,15.40
2023-05-24T19:18:56.195Z,15.30
2023-05-24T19:21:58.164Z,15.30
2023-05-24T19:25:00.077Z,15.20
2023-05-24T19:28:01.988Z,15.20
2023-05-24T19:31:05.207Z,15.20
2023-05-24T19:34:07.209Z,15.10
2023-05-24T19:37:09.753Z,15.10
2023-05-24T19:40:11.916Z,15.00
2023-05-24T19:43:14.556Z,15.00
2023-05-24T19:46:16.432Z,15.00
2023-05-24T19:49:18.307Z,15.00
2023-05-24T19:52:21.294Z,14.90
2023-05-24T19:55:26.563Z,14.80
2023-05-24T19:58:29.767Z,14.90
2023-05-24T20:01:31.763Z,14.90
2023-05-24T20:04:33.748Z,14.90
2023-05-24T20:07:36.950Z,14.90
2023-05-24T20:10:41.595Z,14.90
2023-05-24T20:13:52.669Z,14.90
2023-05-24T20:16:54.589Z,14.90
2023-05-24T20:20:01.798Z,14.90
2023-05-24T20:23:03.626Z,14.90
2023-05-24T20:26:06.743Z,14.80
2023-05-24T20:29:08.806Z,14.90
2023-05-24T20:32:13.939Z,14.80
2023-05-24T20:35:15.861Z,14.80
2023-05-24T20:38:19.043Z,14.70
2023-05-24T20:41:20.944Z,14.60
2023-05-24T20:44:22.773Z,14.60
2023-05-24T20:47:24.843Z,14.60
2023-05-24T20:50:27.096Z,14.50
2023-05-24T20:53:29.159Z,14.50
2023-05-24T20:56:35.900Z,14.40
2023-05-24T20:59:37.837Z,14.40
2023-05-24T21:02:40.480Z,14.30
2023-05-24T21:05:42.712Z,14.30
2023-05-24T21:08:51.925Z,14.20
2023-05-24T21:11:54.082Z,14.10
2023-05-24T21:15:00.690Z,14.00
2023-05-24T21:18:03.751Z,14.00
2023-05-24T21:21:10.096Z,14.00
2023-05-24T21:24:12.159Z,14.00
2023-05-24T21:27:20.400Z,14.00
2023-05-24T21:30:22.362Z,13.90
2023-05-24T21:33:25.052Z,13.90
2023-05-24T21:36:26.994Z,13.90
2023-05-24T21:39:29.007Z,13.80
2023-05-24T21:42:30.937Z,13.70
2023-05-24T21:45:37.408Z,13.60
2023-05-24T21:48:39.275Z,13.60
2023-05-24T21:51:44.335Z,13.70
2023-05-24T21:54:46.101Z,13.50
2023-05-24T21:57:48.798Z,13.50
2023-05-24T22:00:51.590Z,13.50
2023-05-24T22:03:53.624Z,13.60
2023-05-24T22:06:55.952Z,13.50
2023-05-24T22:09:59.240Z,13.50
2023-05-24T22:13:01.382Z,13.60
2023-05-24T22:16:03.417Z,13.50
2023-05-24T22:19:15.153Z,13.40
2023-05-24T22:22:20.426Z,13.40
2023-05-24T22:25:22.153Z,13.20
2023-05-24T22:28:27.127Z,13.20
2023-05-24T22:31:29.562Z,13.20
2023-05-24T22:34:32.405Z,13.10
2023-05-24T22:37:36.526Z,12.90
2023-05-24T22:40:41.782Z,13.00
2023-05-24T22:43:44.547Z,13.10
2023-05-24T22:46:49.884Z,13.10
2023-05-24T22:49:53.961Z,13.10
2023-05-24T22:52:56.846Z,13.00
2023-05-24T22:55:58.709Z,13.10
2023-05-24T22:59:00.730Z,13.00
2023-05-24T23:02:02.654Z,12.80
2023-05-24T23:05:06.220Z,12.70
2023-05-24T23:08:13.403Z,12.70
2023-05-24T23:11:17.443Z,12.60
2023-05-24T23:14:19.346Z,12.70
2023-05-24T23:17:22.358Z,12.70
2023-05-24T23:20:24.641Z,12.80
2023-05-24T23:23:28.127Z,12.80
2023-05-24T23:26:30.034Z,12.80
2023-05-24T23:29:32.861Z,12.90
2023-05-24T23:32:34.741Z,12.70
2023-05-24T23:35:36.690Z,12.70
2023-05-24T23:38:38.765Z,12.80
2023-05-24T23:41:40.859Z,12.80
2023-05-24T23:44:42.815Z,12.50
2023-05-24T23:47:50.325Z,12.60
2023-05-24T23:50:54.610Z,12.60
2023-05-24T23:53:58.386Z,12.60
2023-05-24T23:57:01.145Z,12.70
